Portada
METAR-TAF:

METAR-TAF

Aeroports :

Waynesville Regional Airport at Forney Field

Fort Leonard Wood, Missouri, Estats Units d'Amèrica

latitud: 37-44N, longitud: 092-08W, altitud: 353 m

Observació

L'informe es va fer fa 20 minuts, a les 17:56 UTC
Vent 13 kt del Sud amb ràfegues de 20 kt
Temperatura 25°C
Humitat 65%
Pressió 1011 hPa
Visibilitat: 16.1 km
Núvols disperses a una alçada de 3200 ft
Cel cobert a una alçada de 4200 ft

METAR: KTBN 261756Z AUTO 17013G20KT 10SM SCT032 OVC042 25/18 A2986 RMK AO2 SLP103 T02510178 10252 20204 51006 $

Hora: 13:16 (18:16 UTC)


TAF: manca

Observacions i pronòstics meteorològics de més de 4000 aeroports (METAR i TAF).

Les estacions disponibles són els punts grocs i vermells al mapa.

Posi el ratolí al punt desitjat per veure el nom de l'estació.

Feu clic per veure les observacions i els pronòstics meteorològics.

Per canviar el mapa: feu clic els botons verds amb una creu de color negre per apropar; al botó verd amb un guió per allunyar la imatge; o en les fletxes verdes per a mapes adjacents.


METAR-TAF: